Terminal Aerodrome Forecast
Issued by NWS

Home | Current Version | Previous Version | Graphics & Text | Print | Product List | Glossary On
Versions: 1 2 3 4 5 6 7 8 9 10 11 12 13 14 15 16 17 18 19 20 21 22 23 24 25 26 27 28 29 30 31 32 33 34 35 36 37 38 39 40 41 42 43 44 45 46 47 48 49 50
000
FTUS43 KLOT 242100 AAB
TAFGYY
TAF AMD
KGYY 242155Z 2422/2518 25017G27KT P6SM SCT025 BKN040
     FM250000 27015G25KT P6SM SCT035 BKN050
      TEMPO 2500/2502 5SM -SHSN BKN025
     FM250400 29013KT P6SM SCT035
     FM250700 32008KT P6SM SCT150
     FM251500 35005KT P6SM OVC080=

USA.gov is the U.S. government's official web portal to all federal, state and local government web resources and services.